地図

経路データ

SID SEASON NUMBER BASIN SUBBASIN NAME ISO_TIME NATURE LAT LON WMO_WIND WMO_PRES WMO_AGENCY TRACK_TYPE DIST2LAND LANDFALL IFLAG USA_AGENCY USA_ATCF_ID USA_LAT USA_LON USA_RECORD USA_STATUS USA_WIND USA_PRES USA_SSHS USA_R34_NE USA_R34_SE USA_R34_SW USA_R34_NW USA_R50_NE USA_R50_SE USA_R50_SW USA_R50_NW USA_R64_NE USA_R64_SE USA_R64_SW USA_R64_NW USA_POCI USA_ROCI USA_RMW USA_EYE TOKYO_LAT TOKYO_LON TOKYO_GRADE TOKYO_WIND TOKYO_PRES TOKYO_R50_DIR TOKYO_R50_LONG TOKYO_R50_SHORT TOKYO_R30_DIR TOKYO_R30_LONG TOKYO_R30_SHORT TOKYO_LAND CMA_LAT CMA_LON CMA_CAT CMA_WIND CMA_PRES HKO_LAT HKO_LON HKO_CAT HKO_WIND HKO_PRES NEWDELHI_LAT NEWDELHI_LON NEWDELHI_GRADE NEWDELHI_WIND NEWDELHI_PRES NEWDELHI_CI NEWDELHI_DP NEWDELHI_POCI REUNION_LAT REUNION_LON REUNION_TYPE REUNION_WIND REUNION_PRES REUNION_TNUM REUNION_CI REUNION_RMW REUNION_R34_NE REUNION_R34_SE REUNION_R34_SW REUNION_R34_NW REUNION_R50_NE REUNION_R50_SE REUNION_R50_SW REUNION_R50_NW REUNION_R64_NE REUNION_R64_SE REUNION_R64_SW REUNION_R64_NW BOM_LAT BOM_LON BOM_TYPE BOM_WIND BOM_PRES BOM_TNUM BOM_CI BOM_RMW BOM_R34_NE BOM_R34_SE BOM_R34_SW BOM_R34_NW BOM_R50_NE BOM_R50_SE BOM_R50_SW BOM_R50_NW BOM_R64_NE BOM_R64_SE BOM_R64_SW BOM_R64_NW BOM_ROCI BOM_POCI BOM_EYE BOM_POS_METHOD BOM_PRES_METHOD NADI_LAT NADI_LON NADI_CAT NADI_WIND NADI_PRES WELLINGTON_LAT WELLINGTON_LON WELLINGTON_WIND WELLINGTON_PRES DS824_LAT DS824_LON DS824_STAGE DS824_WIND DS824_PRES TD9636_LAT TD9636_LON TD9636_STAGE TD9636_WIND TD9636_PRES TD9635_LAT TD9635_LON TD9635_WIND TD9635_PRES TD9635_ROCI NEUMANN_LAT NEUMANN_LON NEUMANN_CLASS NEUMANN_WIND NEUMANN_PRES MLC_LAT MLC_LON MLC_CLASS MLC_WIND MLC_PRES USA_GUST BOM_GUST BOM_GUST_PER REUNION_GUST REUNION_GUST_PER USA_SEAHGT USA_SEARAD_NE USA_SEARAD_SE USA_SEARAD_SW USA_SEARAD_NW STORM_SPEED STORM_DIR
1916014N10128 1916 4 WP MM NOT_NAMED 1916-01-14 10:00:00 NR 10.0000 128.000 main 216 206 __________O___ -1 10.0000 128.000 4 4 291
1916014N10128 1916 4 WP MM NOT_NAMED 1916-01-14 12:00:00 NR 10.0511 127.865 main 212 192 __________P___ -1 10.0511 127.865 4 4 291
1916014N10128 1916 4 WP MM NOT_NAMED 1916-01-14 15:00:00 NR 10.1273 127.657 main 192 172 __________P___ -1 10.1273 127.657 4 5 290
1916014N10128 1916 4 WP MM NOT_NAMED 1916-01-14 18:00:00 NR 10.2024 127.435 main 172 159 __________P___ -1 10.2024 127.435 4 5 288
1916014N10128 1916 4 WP MM NOT_NAMED 1916-01-14 21:00:00 NR 10.2760 127.189 main 159 150 __________P___ -1 10.2760 127.189 4 5 287
1916014N10128 1916 4 WP MM NOT_NAMED 1916-01-14 22:00:00 NR 10.3000 127.100 main 150 133 __________O___ -1 10.3000 127.100 4 6 285
1916014N10128 1916 4 WP MM NOT_NAMED 1916-01-15 00:00:00 NR 10.3474 126.912 main 133 110 __________P___ -1 10.3474 126.912 4 6 284
1916014N10128 1916 4 WP MM NOT_NAMED 1916-01-15 03:00:00 NR 10.4185 126.611 main 110 78 __________P___ -1 10.4185 126.611 4 6 284
1916014N10128 1916 4 WP MM NOT_NAMED 1916-01-15 06:00:00 NR 10.4922 126.300 main 78 49 __________P___ -1 10.4922 126.300 4 6 284
1916014N10128 1916 4 WP MM NOT_NAMED 1916-01-15 09:00:00 NR 10.5717 125.997 main 49 46 __________P___ -1 10.5717 125.997 4 6 285
1916014N10128 1916 4 WP MM NOT_NAMED 1916-01-15 10:00:00 NR 10.6000 125.900 main 46 35 __________O___ -1 10.6000 125.900 4 6 288
1916014N10128 1916 4 WP MM NOT_NAMED 1916-01-15 12:00:00 NR 10.6662 125.706 main 35 31 __________P___ -1 10.6662 125.706 4 6 290
1916014N10128 1916 4 WP MM NOT_NAMED 1916-01-15 15:00:00 NR 10.7719 125.428 main 31 21 __________P___ -1 10.7719 125.428 4 6 292
1916014N10128 1916 4 WP MM NOT_NAMED 1916-01-15 18:00:00 NR 10.8771 125.175 main 21 0 __________P___ -1 10.8771 125.175 4 5 294
1916014N10128 1916 4 WP MM NOT_NAMED 1916-01-15 21:00:00 NR 10.9722 124.961 main 0 0 __________P___ -1 10.9722 124.961 4 4 294
1916014N10128 1916 4 WP MM NOT_NAMED 1916-01-15 22:00:00 NR 11.0000 124.900 main 0 0 __________O___ -1 11.0000 124.900 4 4 295
1916014N10128 1916 4 WP MM NOT_NAMED 1916-01-16 00:00:00 NR 11.0473 124.799 main 0 0 __________P___ -1 11.0473 124.799 4 3 297
1916014N10128 1916 4 WP MM NOT_NAMED 1916-01-16 03:00:00 NR 11.1057 124.685 main 0 0 __________P___ -1 11.1057 124.685 4 2 298
1916014N10128 1916 4 WP MM NOT_NAMED 1916-01-16 06:00:00 NR 11.1520 124.601 main 0 0 __________P___ -1 11.1520 124.601 4 2 298
1916014N10128 1916 4 WP MM NOT_NAMED 1916-01-16 09:00:00 NR 11.1891 124.526 main 0 0 __________P___ -1 11.1891 124.526 4 2 297
1916014N10128 1916 4 WP MM NOT_NAMED 1916-01-16 10:00:00 NR 11.2000 124.500 main 0 0 __________O___ -1 11.2000 124.500 4 2 291
1916014N10128 1916 4 WP MM NOT_NAMED 1916-01-16 12:00:00 NR 11.2201 124.444 main 0 0 __________P___ -1 11.2201 124.444 4 2 288
1916014N10128 1916 4 WP MM NOT_NAMED 1916-01-16 15:00:00 NR 11.2469 124.349 main 10 10 __________P___ -1 11.2469 124.349 4 2 285
1916014N10128 1916 4 WP MM NOT_NAMED 1916-01-16 18:00:00 NR 11.2707 124.245 main 21 15 __________P___ -1 11.2707 124.245 4 2 282
1916014N10128 1916 4 WP MM NOT_NAMED 1916-01-16 21:00:00 NR 11.2928 124.137 main 15 15 __________P___ -1 11.2928 124.137 4 2 281
1916014N10128 1916 4 WP MM NOT_NAMED 1916-01-16 22:00:00 NR 11.3000 124.100 main 15 __________O___ -1 11.3000 124.100 4 2 280

デジタル台風データ・検索

IBTrACS Databaseについて

本データベースは、米国NOAAが公開する1842年以降の世界の熱帯低気圧のベストトラックデータアーカイブInternational Best Track Archive for Climate Stewardship (IBTrACS)を、ウェブで閲覧しやすい形式に変換したものです。

最終更新日:2021-10-21